sensor_id;sensor_type;location;lat;lon;timestamp;P1;durP1;ratioP1;P2;durP2;ratioP2
5418;SDS011;2732;52.092;11.556;2023-03-05T00:02:51;3.77;;;0.87;;
5418;SDS011;2732;52.092;11.556;2023-03-05T00:07:52;2.50;;;1.10;;
5418;SDS011;2732;52.092;11.556;2023-03-05T00:12:52;1.17;;;0.87;;
5418;SDS011;2732;52.092;11.556;2023-03-05T00:17:53;4.57;;;0.90;;
5418;SDS011;2732;52.092;11.556;2023-03-05T00:22:54;5.93;;;1.10;;
5418;SDS011;2732;52.092;11.556;2023-03-05T00:27:54;1.50;;;0.70;;
5418;SDS011;2732;52.092;11.556;2023-03-05T00:32:55;2.40;;;1.40;;
5418;SDS011;2732;52.092;11.556;2023-03-05T00:37:55;3.50;;;0.87;;
5418;SDS011;2732;52.092;11.556;2023-03-05T00:42:56;5.37;;;1.20;;
5418;SDS011;2732;52.092;11.556;2023-03-05T00:47:57;14.03;;;1.07;;
5418;SDS011;2732;52.092;11.556;2023-03-05T00:52:58;2.77;;;1.13;;
5418;SDS011;2732;52.092;11.556;2023-03-05T00:57:58;4.30;;;1.50;;
5418;SDS011;2732;52.092;11.556;2023-03-05T01:02:59;6.40;;;1.20;;
5418;SDS011;2732;52.092;11.556;2023-03-05T01:08:00;4.37;;;0.90;;
5418;SDS011;2732;52.092;11.556;2023-03-05T01:13:01;11.07;;;1.40;;
5418;SDS011;2732;52.092;11.556;2023-03-05T01:18:01;8.43;;;1.53;;
5418;SDS011;2732;52.092;11.556;2023-03-05T01:23:02;3.20;;;1.43;;
5418;SDS011;2732;52.092;11.556;2023-03-05T01:28:03;8.23;;;1.57;;
5418;SDS011;2732;52.092;11.556;2023-03-05T01:33:04;6.57;;;2.40;;
5418;SDS011;2732;52.092;11.556;2023-03-05T01:38:04;8.77;;;2.47;;
5418;SDS011;2732;52.092;11.556;2023-03-05T01:43:12;8.50;;;2.63;;
5418;SDS011;2732;52.092;11.556;2023-03-05T01:48:25;3.70;;;1.70;;
5418;SDS011;2732;52.092;11.556;2023-03-05T01:53:26;6.83;;;1.93;;
5418;SDS011;2732;52.092;11.556;2023-03-05T01:58:27;6.40;;;2.20;;
5418;SDS011;2732;52.092;11.556;2023-03-05T02:03:28;3.67;;;2.37;;
5418;SDS011;2732;52.092;11.556;2023-03-05T02:08:29;11.80;;;3.13;;
5418;SDS011;2732;52.092;11.556;2023-03-05T02:13:31;5.20;;;1.80;;
5418;SDS011;2732;52.092;11.556;2023-03-05T02:18:34;10.67;;;2.07;;
5418;SDS011;2732;52.092;11.556;2023-03-05T02:23:35;4.20;;;2.33;;
5418;SDS011;2732;52.092;11.556;2023-03-05T02:28:41;11.53;;;2.80;;
5418;SDS011;2732;52.092;11.556;2023-03-05T02:33:47;2.40;;;2.20;;
5418;SDS011;2732;52.092;11.556;2023-03-05T02:38:48;9.30;;;1.43;;
5418;SDS011;2732;52.092;11.556;2023-03-05T02:43:49;7.07;;;1.63;;
5418;SDS011;2732;52.092;11.556;2023-03-05T02:48:50;7.93;;;1.57;;
5418;SDS011;2732;52.092;11.556;2023-03-05T02:53:51;10.23;;;3.00;;
5418;SDS011;2732;52.092;11.556;2023-03-05T02:58:52;3.73;;;1.40;;
5418;SDS011;2732;52.092;11.556;2023-03-05T03:03:53;5.20;;;1.90;;
5418;SDS011;2732;52.092;11.556;2023-03-05T03:08:54;14.53;;;2.20;;
5418;SDS011;2732;52.092;11.556;2023-03-05T03:13:54;13.83;;;2.10;;
5418;SDS011;2732;52.092;11.556;2023-03-05T03:18:55;3.47;;;1.90;;
5418;SDS011;2732;52.092;11.556;2023-03-05T03:23:55;2.97;;;1.27;;
5418;SDS011;2732;52.092;11.556;2023-03-05T03:28:56;3.33;;;2.27;;
5418;SDS011;2732;52.092;11.556;2023-03-05T03:33:57;6.10;;;3.10;;
5418;SDS011;2732;52.092;11.556;2023-03-05T03:38:57;13.03;;;3.77;;
5418;SDS011;2732;52.092;11.556;2023-03-05T03:43:58;8.80;;;3.80;;
5418;SDS011;2732;52.092;11.556;2023-03-05T03:48:59;9.80;;;5.13;;
5418;SDS011;2732;52.092;11.556;2023-03-05T03:54:00;8.97;;;4.47;;
5418;SDS011;2732;52.092;11.556;2023-03-05T03:59:01;14.90;;;4.33;;
5418;SDS011;2732;52.092;11.556;2023-03-05T04:04:02;11.90;;;5.03;;
5418;SDS011;2732;52.092;11.556;2023-03-05T04:09:03;11.37;;;3.93;;
5418;SDS011;2732;52.092;11.556;2023-03-05T04:14:07;9.57;;;4.70;;
5418;SDS011;2732;52.092;11.556;2023-03-05T04:19:07;6.70;;;4.03;;
5418;SDS011;2732;52.092;11.556;2023-03-05T04:24:08;13.77;;;3.47;;
5418;SDS011;2732;52.092;11.556;2023-03-05T04:29:08;6.07;;;4.20;;
5418;SDS011;2732;52.092;11.556;2023-03-05T04:34:09;5.87;;;2.70;;
5418;SDS011;2732;52.092;11.556;2023-03-05T04:39:10;5.20;;;3.10;;
5418;SDS011;2732;52.092;11.556;2023-03-05T04:44:12;2.83;;;1.80;;
5418;SDS011;2732;52.092;11.556;2023-03-05T04:49:14;10.40;;;2.83;;
5418;SDS011;2732;52.092;11.556;2023-03-05T04:54:15;8.00;;;3.23;;
5418;SDS011;2732;52.092;11.556;2023-03-05T04:59:15;9.20;;;2.30;;
5418;SDS011;2732;52.092;11.556;2023-03-05T05:04:16;5.53;;;1.87;;
5418;SDS011;2732;52.092;11.556;2023-03-05T05:09:16;7.67;;;2.43;;
5418;SDS011;2732;52.092;11.556;2023-03-05T05:14:17;5.67;;;2.90;;
5418;SDS011;2732;52.092;11.556;2023-03-05T05:19:18;10.87;;;3.70;;
5418;SDS011;2732;52.092;11.556;2023-03-05T05:24:19;4.20;;;2.20;;
5418;SDS011;2732;52.092;11.556;2023-03-05T05:29:20;2.20;;;1.77;;
5418;SDS011;2732;52.092;11.556;2023-03-05T05:34:21;1.70;;;1.47;;
5418;SDS011;2732;52.092;11.556;2023-03-05T05:39:24;8.70;;;2.60;;
5418;SDS011;2732;52.092;11.556;2023-03-05T05:44:24;4.90;;;1.57;;
5418;SDS011;2732;52.092;11.556;2023-03-05T05:49:25;12.97;;;2.80;;
5418;SDS011;2732;52.092;11.556;2023-03-05T05:54:26;4.33;;;2.40;;
5418;SDS011;2732;52.092;11.556;2023-03-05T05:59:26;11.50;;;2.43;;
5418;SDS011;2732;52.092;11.556;2023-03-05T06:04:27;6.73;;;3.17;;
5418;SDS011;2732;52.092;11.556;2023-03-05T06:09:28;3.93;;;3.30;;
5418;SDS011;2732;52.092;11.556;2023-03-05T06:14:28;7.10;;;3.53;;
5418;SDS011;2732;52.092;11.556;2023-03-05T06:19:29;4.30;;;2.93;;
5418;SDS011;2732;52.092;11.556;2023-03-05T06:24:30;8.23;;;2.30;;
5418;SDS011;2732;52.092;11.556;2023-03-05T06:29:31;4.87;;;2.80;;
5418;SDS011;2732;52.092;11.556;2023-03-05T06:34:31;6.30;;;3.10;;
5418;SDS011;2732;52.092;11.556;2023-03-05T06:39:32;5.80;;;3.03;;
5418;SDS011;2732;52.092;11.556;2023-03-05T06:44:33;5.90;;;3.13;;
5418;SDS011;2732;52.092;11.556;2023-03-05T06:49:33;5.53;;;2.53;;
5418;SDS011;2732;52.092;11.556;2023-03-05T06:54:34;5.30;;;2.13;;
5418;SDS011;2732;52.092;11.556;2023-03-05T06:59:35;6.23;;;2.57;;
5418;SDS011;2732;52.092;11.556;2023-03-05T07:04:36;6.90;;;3.10;;
5418;SDS011;2732;52.092;11.556;2023-03-05T07:09:36;1.50;;;1.00;;
5418;SDS011;2732;52.092;11.556;2023-03-05T07:14:41;8.80;;;2.57;;
5418;SDS011;2732;52.092;11.556;2023-03-05T07:19:42;3.87;;;2.20;;
5418;SDS011;2732;52.092;11.556;2023-03-05T07:24:43;3.80;;;1.73;;
5418;SDS011;2732;52.092;11.556;2023-03-05T07:29:44;3.83;;;3.30;;
5418;SDS011;2732;52.092;11.556;2023-03-05T07:34:44;3.00;;;2.80;;
5418;SDS011;2732;52.092;11.556;2023-03-05T07:39:45;5.60;;;2.33;;
5418;SDS011;2732;52.092;11.556;2023-03-05T07:44:45;5.63;;;3.03;;
5418;SDS011;2732;52.092;11.556;2023-03-05T07:49:46;7.77;;;2.47;;
5418;SDS011;2732;52.092;11.556;2023-03-05T07:54:47;3.10;;;2.20;;
5418;SDS011;2732;52.092;11.556;2023-03-05T07:59:47;3.70;;;3.20;;
5418;SDS011;2732;52.092;11.556;2023-03-05T08:04:51;5.10;;;2.70;;
5418;SDS011;2732;52.092;11.556;2023-03-05T08:09:52;6.00;;;3.10;;
5418;SDS011;2732;52.092;11.556;2023-03-05T08:14:53;2.90;;;2.63;;
5418;SDS011;2732;52.092;11.556;2023-03-05T08:19:54;4.10;;;3.27;;
5418;SDS011;2732;52.092;11.556;2023-03-05T08:24:57;8.53;;;2.77;;
5418;SDS011;2732;52.092;11.556;2023-03-05T08:29:59;6.90;;;3.70;;
5418;SDS011;2732;52.092;11.556;2023-03-05T08:35:01;6.97;;;3.27;;
5418;SDS011;2732;52.092;11.556;2023-03-05T08:40:03;4.07;;;3.47;;
5418;SDS011;2732;52.092;11.556;2023-03-05T08:45:05;3.83;;;2.50;;
5418;SDS011;2732;52.092;11.556;2023-03-05T08:50:07;8.63;;;4.40;;
5418;SDS011;2732;52.092;11.556;2023-03-05T08:55:10;4.63;;;3.10;;
5418;SDS011;2732;52.092;11.556;2023-03-05T09:00:11;4.73;;;2.57;;
5418;SDS011;2732;52.092;11.556;2023-03-05T09:05:13;6.50;;;3.40;;
5418;SDS011;2732;52.092;11.556;2023-03-05T09:10:14;6.60;;;2.93;;
5418;SDS011;2732;52.092;11.556;2023-03-05T09:15:17;4.27;;;2.90;;
5418;SDS011;2732;52.092;11.556;2023-03-05T09:20:17;6.60;;;2.80;;
5418;SDS011;2732;52.092;11.556;2023-03-05T09:25:19;3.47;;;2.03;;
5418;SDS011;2732;52.092;11.556;2023-03-05T09:30:19;4.53;;;1.77;;
5418;SDS011;2732;52.092;11.556;2023-03-05T09:35:20;1.03;;;1.03;;
5418;SDS011;2732;52.092;11.556;2023-03-05T09:40:21;4.47;;;2.13;;
5418;SDS011;2732;52.092;11.556;2023-03-05T09:45:25;2.83;;;2.50;;
5418;SDS011;2732;52.092;11.556;2023-03-05T09:56:11;3.03;;;2.50;;
5418;SDS011;2732;52.092;11.556;2023-03-05T10:01:18;6.40;;;2.87;;
5418;SDS011;2732;52.092;11.556;2023-03-05T10:06:49;2.07;;;1.30;;
5418;SDS011;2732;52.092;11.556;2023-03-05T10:12:04;1.23;;;1.13;;
5418;SDS011;2732;52.092;11.556;2023-03-05T10:23:02;2.17;;;1.87;;
5418;SDS011;2732;52.092;11.556;2023-03-05T10:28:32;2.77;;;1.33;;
5418;SDS011;2732;52.092;11.556;2023-03-05T10:44:45;0.83;;;0.53;;
5418;SDS011;2732;52.092;11.556;2023-03-05T10:49:52;0.50;;;0.50;;
5418;SDS011;2732;52.092;11.556;2023-03-05T10:54:55;0.80;;;0.80;;
5418;SDS011;2732;52.092;11.556;2023-03-05T10:59:57;0.50;;;0.40;;
5418;SDS011;2732;52.092;11.556;2023-03-05T11:05:45;0.50;;;0.50;;
5418;SDS011;2732;52.092;11.556;2023-03-05T11:11:00;1.73;;;1.43;;
5418;SDS011;2732;52.092;11.556;2023-03-05T11:16:16;1.43;;;0.90;;
5418;SDS011;2732;52.092;11.556;2023-03-05T11:22:27;1.53;;;0.90;;
5418;SDS011;2732;52.092;11.556;2023-03-05T11:27:23;6.80;;;1.13;;
5418;SDS011;2732;52.092;11.556;2023-03-05T11:32:31;2.37;;;0.90;;
5418;SDS011;2732;52.092;11.556;2023-03-05T11:37:32;1.57;;;1.43;;
5418;SDS011;2732;52.092;11.556;2023-03-05T11:42:33;4.67;;;1.40;;
5418;SDS011;2732;52.092;11.556;2023-03-05T11:47:36;8.53;;;2.30;;
5418;SDS011;2732;52.092;11.556;2023-03-05T11:52:47;8.87;;;1.77;;
5418;SDS011;2732;52.092;11.556;2023-03-05T12:03:39;1.37;;;1.27;;
5418;SDS011;2732;52.092;11.556;2023-03-05T12:08:41;4.30;;;1.23;;
5418;SDS011;2732;52.092;11.556;2023-03-05T12:13:50;1.67;;;1.07;;
5418;SDS011;2732;52.092;11.556;2023-03-05T12:19:00;1.13;;;0.70;;
5418;SDS011;2732;52.092;11.556;2023-03-05T12:24:35;2.13;;;0.77;;
5418;SDS011;2732;52.092;11.556;2023-03-05T12:29:39;2.40;;;0.60;;
5418;SDS011;2732;52.092;11.556;2023-03-05T12:34:55;0.73;;;0.60;;
5418;SDS011;2732;52.092;11.556;2023-03-05T12:55:37;1.90;;;0.50;;
5418;SDS011;2732;52.092;11.556;2023-03-05T13:06:32;0.60;;;0.50;;
5418;SDS011;2732;52.092;11.556;2023-03-05T13:11:35;1.20;;;0.53;;
5418;SDS011;2732;52.092;11.556;2023-03-05T13:16:38;2.57;;;1.10;;
5418;SDS011;2732;52.092;11.556;2023-03-05T13:21:39;2.20;;;0.70;;
5418;SDS011;2732;52.092;11.556;2023-03-05T13:26:39;2.00;;;0.67;;
5418;SDS011;2732;52.092;11.556;2023-03-05T13:31:42;2.40;;;1.03;;
5418;SDS011;2732;52.092;11.556;2023-03-05T13:36:46;7.13;;;1.23;;
5418;SDS011;2732;52.092;11.556;2023-03-05T13:42:21;2.20;;;1.40;;
5418;SDS011;2732;52.092;11.556;2023-03-05T13:47:32;3.90;;;1.13;;
5418;SDS011;2732;52.092;11.556;2023-03-05T13:52:36;0.90;;;0.90;;
5418;SDS011;2732;52.092;11.556;2023-03-05T13:57:45;1.53;;;1.07;;
5418;SDS011;2732;52.092;11.556;2023-03-05T14:02:52;3.00;;;0.87;;
5418;SDS011;2732;52.092;11.556;2023-03-05T14:07:56;1.63;;;0.90;;
5418;SDS011;2732;52.092;11.556;2023-03-05T14:12:57;2.90;;;1.20;;
5418;SDS011;2732;52.092;11.556;2023-03-05T14:28:48;0.80;;;0.80;;
5418;SDS011;2732;52.092;11.556;2023-03-05T14:33:51;4.33;;;1.13;;
5418;SDS011;2732;52.092;11.556;2023-03-05T14:38:53;1.27;;;0.70;;
5418;SDS011;2732;52.092;11.556;2023-03-05T14:43:55;0.70;;;0.70;;
5418;SDS011;2732;52.092;11.556;2023-03-05T14:48:56;3.30;;;0.93;;
5418;SDS011;2732;52.092;11.556;2023-03-05T14:53:56;0.87;;;0.63;;
5418;SDS011;2732;52.092;11.556;2023-03-05T14:58:57;1.83;;;0.90;;
5418;SDS011;2732;52.092;11.556;2023-03-05T15:03:58;1.20;;;0.77;;
5418;SDS011;2732;52.092;11.556;2023-03-05T15:09:00;4.33;;;0.83;;
5418;SDS011;2732;52.092;11.556;2023-03-05T15:14:03;6.90;;;0.90;;
5418;SDS011;2732;52.092;11.556;2023-03-05T15:19:03;2.37;;;0.63;;
5418;SDS011;2732;52.092;11.556;2023-03-05T15:24:04;0.97;;;0.73;;
5418;SDS011;2732;52.092;11.556;2023-03-05T15:29:05;4.20;;;1.13;;
5418;SDS011;2732;52.092;11.556;2023-03-05T15:34:05;0.90;;;0.90;;
5418;SDS011;2732;52.092;11.556;2023-03-05T15:39:06;1.30;;;1.30;;
5418;SDS011;2732;52.092;11.556;2023-03-05T15:44:06;3.37;;;1.00;;
5418;SDS011;2732;52.092;11.556;2023-03-05T15:49:07;4.10;;;1.23;;
5418;SDS011;2732;52.092;11.556;2023-03-05T15:54:08;5.00;;;1.30;;
5418;SDS011;2732;52.092;11.556;2023-03-05T15:59:08;1.70;;;1.00;;
5418;SDS011;2732;52.092;11.556;2023-03-05T16:04:09;2.40;;;1.23;;
5418;SDS011;2732;52.092;11.556;2023-03-05T16:09:13;0.90;;;0.70;;
5418;SDS011;2732;52.092;11.556;2023-03-05T16:14:18;0.93;;;0.93;;
5418;SDS011;2732;52.092;11.556;2023-03-05T16:19:22;6.03;;;1.60;;
5418;SDS011;2732;52.092;11.556;2023-03-05T16:24:24;2.47;;;1.07;;
5418;SDS011;2732;52.092;11.556;2023-03-05T16:29:25;1.33;;;1.23;;
5418;SDS011;2732;52.092;11.556;2023-03-05T16:34:27;2.73;;;1.67;;
5418;SDS011;2732;52.092;11.556;2023-03-05T16:39:28;2.47;;;1.73;;
5418;SDS011;2732;52.092;11.556;2023-03-05T16:44:28;1.70;;;1.60;;
5418;SDS011;2732;52.092;11.556;2023-03-05T16:49:29;1.80;;;1.63;;
5418;SDS011;2732;52.092;11.556;2023-03-05T16:54:31;3.33;;;1.97;;
5418;SDS011;2732;52.092;11.556;2023-03-05T16:59:32;3.17;;;2.40;;
5418;SDS011;2732;52.092;11.556;2023-03-05T17:04:32;4.50;;;2.67;;
5418;SDS011;2732;52.092;11.556;2023-03-05T17:09:34;5.07;;;2.90;;
5418;SDS011;2732;52.092;11.556;2023-03-05T17:14:35;3.63;;;2.83;;
5418;SDS011;2732;52.092;11.556;2023-03-05T17:19:36;12.00;;;3.53;;
5418;SDS011;2732;52.092;11.556;2023-03-05T17:24:37;3.47;;;3.00;;
5418;SDS011;2732;52.092;11.556;2023-03-05T17:29:41;2.10;;;1.80;;
5418;SDS011;2732;52.092;11.556;2023-03-05T17:34:42;1.67;;;1.57;;
5418;SDS011;2732;52.092;11.556;2023-03-05T17:39:43;2.50;;;1.80;;
5418;SDS011;2732;52.092;11.556;2023-03-05T17:44:43;3.67;;;1.50;;
5418;SDS011;2732;52.092;11.556;2023-03-05T17:49:44;1.20;;;1.20;;
5418;SDS011;2732;52.092;11.556;2023-03-05T17:54:45;4.93;;;1.20;;
5418;SDS011;2732;52.092;11.556;2023-03-05T17:59:47;1.80;;;1.20;;
5418;SDS011;2732;52.092;11.556;2023-03-05T18:04:48;2.03;;;1.47;;
5418;SDS011;2732;52.092;11.556;2023-03-05T18:09:51;1.47;;;1.37;;
5418;SDS011;2732;52.092;11.556;2023-03-05T18:14:51;5.17;;;1.27;;
5418;SDS011;2732;52.092;11.556;2023-03-05T18:19:53;2.80;;;1.00;;
5418;SDS011;2732;52.092;11.556;2023-03-05T18:24:55;2.50;;;1.03;;
5418;SDS011;2732;52.092;11.556;2023-03-05T18:29:56;6.73;;;4.30;;
5418;SDS011;2732;52.092;11.556;2023-03-05T18:34:57;3.13;;;1.47;;
5418;SDS011;2732;52.092;11.556;2023-03-05T18:39:58;3.43;;;1.37;;
5418;SDS011;2732;52.092;11.556;2023-03-05T18:44:59;1.13;;;0.77;;
5418;SDS011;2732;52.092;11.556;2023-03-05T18:50:01;2.30;;;1.10;;
5418;SDS011;2732;52.092;11.556;2023-03-05T18:55:01;1.40;;;1.27;;
5418;SDS011;2732;52.092;11.556;2023-03-05T19:00:02;1.20;;;1.03;;
5418;SDS011;2732;52.092;11.556;2023-03-05T19:05:04;6.33;;;2.50;;
5418;SDS011;2732;52.092;11.556;2023-03-05T19:10:05;5.13;;;1.70;;
5418;SDS011;2732;52.092;11.556;2023-03-05T19:15:16;4.10;;;1.67;;
5418;SDS011;2732;52.092;11.556;2023-03-05T19:20:17;3.20;;;1.47;;
5418;SDS011;2732;52.092;11.556;2023-03-05T19:25:18;5.70;;;2.07;;
5418;SDS011;2732;52.092;11.556;2023-03-05T19:30:19;6.53;;;2.10;;
5418;SDS011;2732;52.092;11.556;2023-03-05T19:35:20;4.70;;;2.10;;
5418;SDS011;2732;52.092;11.556;2023-03-05T19:40:20;7.33;;;2.30;;
5418;SDS011;2732;52.092;11.556;2023-03-05T19:45:21;6.17;;;2.40;;
5418;SDS011;2732;52.092;11.556;2023-03-05T19:50:22;4.00;;;3.00;;
5418;SDS011;2732;52.092;11.556;2023-03-05T19:55:22;8.10;;;2.53;;
5418;SDS011;2732;52.092;11.556;2023-03-05T20:00:23;6.17;;;1.77;;
5418;SDS011;2732;52.092;11.556;2023-03-05T20:05:27;2.63;;;2.33;;
5418;SDS011;2732;52.092;11.556;2023-03-05T20:10:28;4.70;;;2.67;;
5418;SDS011;2732;52.092;11.556;2023-03-05T20:15:29;5.10;;;2.10;;
5418;SDS011;2732;52.092;11.556;2023-03-05T20:20:29;2.60;;;2.43;;
5418;SDS011;2732;52.092;11.556;2023-03-05T20:25:30;5.10;;;2.53;;
5418;SDS011;2732;52.092;11.556;2023-03-05T20:30:31;7.40;;;2.40;;
5418;SDS011;2732;52.092;11.556;2023-03-05T20:35:32;5.30;;;2.77;;
5418;SDS011;2732;52.092;11.556;2023-03-05T20:40:33;5.00;;;2.87;;
5418;SDS011;2732;52.092;11.556;2023-03-05T20:45:34;4.90;;;2.97;;
5418;SDS011;2732;52.092;11.556;2023-03-05T20:50:39;6.73;;;3.30;;
5418;SDS011;2732;52.092;11.556;2023-03-05T20:55:40;8.93;;;2.80;;
5418;SDS011;2732;52.092;11.556;2023-03-05T21:00:41;2.70;;;2.50;;
5418;SDS011;2732;52.092;11.556;2023-03-05T21:05:42;4.60;;;2.40;;
5418;SDS011;2732;52.092;11.556;2023-03-05T21:10:43;7.90;;;2.50;;
5418;SDS011;2732;52.092;11.556;2023-03-05T21:15:43;3.60;;;2.43;;
5418;SDS011;2732;52.092;11.556;2023-03-05T21:20:44;2.87;;;2.47;;
5418;SDS011;2732;52.092;11.556;2023-03-05T21:25:45;5.13;;;3.07;;
5418;SDS011;2732;52.092;11.556;2023-03-05T21:30:49;3.17;;;2.13;;
5418;SDS011;2732;52.092;11.556;2023-03-05T21:35:53;2.90;;;2.03;;
5418;SDS011;2732;52.092;11.556;2023-03-05T21:40:56;2.93;;;2.50;;
5418;SDS011;2732;52.092;11.556;2023-03-05T21:45:59;3.53;;;1.90;;
5418;SDS011;2732;52.092;11.556;2023-03-05T21:51:05;6.80;;;2.17;;
5418;SDS011;2732;52.092;11.556;2023-03-05T21:56:11;4.23;;;2.20;;
5418;SDS011;2732;52.092;11.556;2023-03-05T22:01:18;3.13;;;1.83;;
5418;SDS011;2732;52.092;11.556;2023-03-05T22:06:19;7.03;;;1.80;;
5418;SDS011;2732;52.092;11.556;2023-03-05T22:11:20;2.33;;;2.10;;
5418;SDS011;2732;52.092;11.556;2023-03-05T22:16:24;4.10;;;1.70;;
5418;SDS011;2732;52.092;11.556;2023-03-05T22:21:27;2.43;;;2.03;;
5418;SDS011;2732;52.092;11.556;2023-03-05T22:26:32;4.17;;;2.33;;
5418;SDS011;2732;52.092;11.556;2023-03-05T22:31:36;4.20;;;1.50;;
5418;SDS011;2732;52.092;11.556;2023-03-05T22:36:37;8.70;;;2.00;;
5418;SDS011;2732;52.092;11.556;2023-03-05T22:41:39;4.00;;;1.63;;
5418;SDS011;2732;52.092;11.556;2023-03-05T22:46:40;3.40;;;1.77;;
5418;SDS011;2732;52.092;11.556;2023-03-05T22:51:43;3.73;;;2.07;;
5418;SDS011;2732;52.092;11.556;2023-03-05T22:56:43;1.50;;;1.40;;
5418;SDS011;2732;52.092;11.556;2023-03-05T23:01:44;4.33;;;1.80;;
5418;SDS011;2732;52.092;11.556;2023-03-05T23:06:45;6.77;;;1.83;;
5418;SDS011;2732;52.092;11.556;2023-03-05T23:11:47;2.77;;;1.80;;
5418;SDS011;2732;52.092;11.556;2023-03-05T23:16:48;3.67;;;1.60;;
5418;SDS011;2732;52.092;11.556;2023-03-05T23:21:48;2.80;;;1.60;;
5418;SDS011;2732;52.092;11.556;2023-03-05T23:26:49;3.47;;;1.60;;
5418;SDS011;2732;52.092;11.556;2023-03-05T23:31:52;8.40;;;1.53;;
5418;SDS011;2732;52.092;11.556;2023-03-05T23:36:54;3.00;;;1.10;;
5418;SDS011;2732;52.092;11.556;2023-03-05T23:41:54;3.40;;;1.87;;
5418;SDS011;2732;52.092;11.556;2023-03-05T23:46:55;1.53;;;1.43;;
5418;SDS011;2732;52.092;11.556;2023-03-05T23:52:00;3.73;;;1.60;;
5418;SDS011;2732;52.092;11.556;2023-03-05T23:57:00;2.10;;;1.47;;
